Time,TemperatureF,DewpointF,PressureIn,WindDirection,WindDirectionDegrees,WindSpeedMPH,WindSpeedGustMPH,Humidity,HourlyPrecipIn,Conditions,Clouds,dailyrainin,SoftwareType,DateUTC
2013-04-15 00:00:00,45.4,34.7,29.76,SE,126,4.0,4.0,66,0.00,,,0.41,Wunderground v.1.15,2013-04-15 04:00:00,
2013-04-15 00:05:00,45.4,34.7,29.76,SE,126,4.0,4.0,66,0.00,,,0.00,Wunderground v.1.15,2013-04-15 04:05:00,
2013-04-15 00:10:00,45.5,34.8,29.76,SE,130,4.0,6.0,66,0.00,,,0.00,Wunderground v.1.15,2013-04-15 04:10:00,
2013-04-15 00:15:00,45.5,34.8,29.76,SE,134,5.0,10.0,66,0.00,,,0.00,Wunderground v.1.15,2013-04-15 04:15:00,
2013-04-15 00:20:00,45.5,34.4,29.76,SE,136,6.0,6.0,65,0.00,,,0.00,Wunderground v.1.15,2013-04-15 04:20:00,
2013-04-15 00:30:00,45.4,34.7,29.75,ESE,120,5.0,5.0,66,0.00,,,0.00,Wunderground v.1.15,2013-04-15 04:30:00,
2013-04-15 00:35:00,45.2,34.5,29.75,ESE,121,5.0,7.0,66,0.00,,,0.00,Wunderground v.1.15,2013-04-15 04:35:00,
2013-04-15 00:40:00,45.1,34.4,29.75,East,95,4.0,6.0,66,0.00,,,0.00,Wunderground v.1.15,2013-04-15 04:40:00,
2013-04-15 00:45:00,45.1,34.4,29.75,ESE,107,5.0,10.0,66,0.00,,,0.00,Wunderground v.1.15,2013-04-15 04:45:00,
2013-04-15 00:55:00,45.1,34.4,29.75,ESE,117,5.0,7.0,66,0.00,,,0.01,Wunderground v.1.15,2013-04-15 04:55:00,
2013-04-15 01:00:00,45.1,34.8,29.75,ESE,104,5.0,5.0,67,0.00,,,0.01,Wunderground v.1.15,2013-04-15 05:00:00,
2013-04-15 01:05:00,45.1,34.8,29.75,ESE,110,4.0,5.0,67,0.00,,,0.01,Wunderground v.1.15,2013-04-15 05:05:00,
2013-04-15 01:15:00,45.1,34.8,29.75,SE,140,3.0,3.0,67,0.00,,,0.01,Wunderground v.1.15,2013-04-15 05:15:00,
2013-04-15 01:20:00,45.2,34.9,29.75,ESE,121,3.0,5.0,67,0.00,,,0.01,Wunderground v.1.15,2013-04-15 05:20:00,
2013-04-15 01:30:00,45.1,34.8,29.75,SSE,147,2.0,2.0,67,0.00,,,0.01,Wunderground v.1.15,2013-04-15 05:30:00,
2013-04-15 01:35:00,45.1,35.2,29.75,ESE,114,2.0,2.0,68,0.00,,,0.01,Wunderground v.1.15,2013-04-15 05:35:00,
2013-04-15 01:40:00,45.1,35.2,29.75,ESE,117,2.0,2.0,68,0.00,,,0.01,Wunderground v.1.15,2013-04-15 05:40:00,
2013-04-15 01:50:00,45.2,35.3,29.75,SE,138,2.0,3.0,68,0.00,,,0.01,Wunderground v.1.15,2013-04-15 05:50:00,
2013-04-15 01:55:00,45.2,35.3,29.75,ESE,112,2.0,5.0,68,0.00,,,0.01,Wunderground v.1.15,2013-04-15 05:55:00,
2013-04-15 02:00:00,45.4,35.1,29.75,SE,141,2.0,2.0,67,0.00,,,0.01,Wunderground v.1.15,2013-04-15 06:00:00,
2013-04-15 02:05:00,45.4,35.1,29.75,SE,136,2.0,2.0,67,0.00,,,0.01,Wunderground v.1.15,2013-04-15 06:05:00,
2013-04-15 02:15:00,45.4,35.5,29.74,SE,130,2.0,2.0,68,0.00,,,0.01,Wunderground v.1.15,2013-04-15 06:15:00,
2013-04-15 02:20:00,45.2,35.3,29.74,SE,138,2.0,3.0,68,0.00,,,0.01,Wunderground v.1.15,2013-04-15 06:20:00,
2013-04-15 02:30:00,45.2,35.3,29.74,SE,137,1.0,1.0,68,0.00,,,0.01,Wunderground v.1.15,2013-04-15 06:30:00,
2013-04-15 02:35:00,45.1,35.5,29.74,ESE,113,1.0,2.0,69,0.00,,,0.01,Wunderground v.1.15,2013-04-15 06:35:00,
2013-04-15 02:40:00,45.1,35.5,29.74,ESE,113,1.0,2.0,69,0.00,,,0.01,Wunderground v.1.15,2013-04-15 06:40:00,
2013-04-15 02:45:00,45.1,35.5,29.73,SE,130,1.0,2.0,69,0.00,,,0.01,Wunderground v.1.15,2013-04-15 06:45:00,
2013-04-15 02:55:00,45.1,35.5,29.73,SE,140,0.0,1.0,69,0.00,,,0.01,Wunderground v.1.15,2013-04-15 06:55:00,
2013-04-15 03:00:00,45.2,35.6,29.74,SE,144,1.0,1.0,69,0.00,,,0.01,Wunderground v.1.15,2013-04-15 07:00:00,
2013-04-15 03:05:00,45.2,36.0,29.74,SSE,148,1.0,1.0,70,0.00,,,0.01,Wunderground v.1.15,2013-04-15 07:05:00,
2013-04-15 03:45:00,45.4,36.2,29.76,ESE,123,1.0,1.0,70,0.00,,,0.01,Wunderground v.1.15,2013-04-15 07:45:00,
2013-04-15 03:50:00,45.5,36.3,29.76,ESE,113,2.0,2.0,70,0.00,,,0.01,Wunderground v.1.15,2013-04-15 07:50:00,
2013-04-15 03:55:00,45.7,36.5,29.76,SE,140,1.0,2.0,70,0.00,,,0.01,Wunderground v.1.15,2013-04-15 07:55:00,
2013-04-15 04:00:00,45.7,36.5,29.76,ESE,123,1.0,1.0,70,0.00,,,0.01,Wunderground v.1.15,2013-04-15 08:00:00,
2013-04-15 04:05:00,46.0,36.8,29.76,SE,127,1.0,5.0,70,0.00,,,0.01,Wunderground v.1.15,2013-04-15 08:05:00,
2013-04-15 04:10:00,46.1,36.5,29.76,ESE,113,1.0,1.0,69,0.00,,,0.01,Wunderground v.1.15,2013-04-15 08:10:00,
2013-04-15 04:15:00,46.2,36.6,29.77,ESE,113,2.0,2.0,69,0.00,,,0.01,Wunderground v.1.15,2013-04-15 08:15:00,
2013-04-15 04:25:00,46.5,37.2,29.77,ESE,119,1.0,1.0,70,0.00,,,0.02,Wunderground v.1.15,2013-04-15 08:25:00,
2013-04-15 04:30:00,46.5,37.2,29.76,SE,124,2.0,2.0,70,0.00,,,0.02,Wunderground v.1.15,2013-04-15 08:30:00,
2013-04-15 04:40:00,46.8,37.5,29.76,SE,131,1.0,2.0,70,0.00,,,0.02,Wunderground v.1.15,2013-04-15 08:40:00,
2013-04-15 04:45:00,47.1,37.8,29.76,SE,131,1.0,2.0,70,0.00,,,0.02,Wunderground v.1.15,2013-04-15 08:45:00,
2013-04-15 04:50:00,47.6,38.3,29.76,SE,145,1.0,1.0,70,0.00,,,0.02,Wunderground v.1.15,2013-04-15 08:50:00,
2013-04-15 04:55:00,48.0,38.7,29.76,SSE,162,1.0,3.0,70,0.00,,,0.02,Wunderground v.1.15,2013-04-15 08:55:00,
2013-04-15 05:05:00,48.9,39.2,29.76,SSE,168,2.0,2.0,69,0.00,,,0.02,Wunderground v.1.15,2013-04-15 09:05:00,
2013-04-15 05:15:00,49.6,39.5,29.75,SSE,151,1.0,2.0,68,0.00,,,0.02,Wunderground v.1.15,2013-04-15 09:15:00,
2013-04-15 05:20:00,49.9,39.8,29.75,ESE,121,2.0,2.0,68,0.00,,,0.02,Wunderground v.1.15,2013-04-15 09:20:00,
2013-04-15 05:25:00,50.1,39.9,29.75,SE,137,2.0,3.0,68,0.00,,,0.02,Wunderground v.1.15,2013-04-15 09:25:00,
2013-04-15 05:30:00,50.2,39.7,29.75,SE,145,1.0,3.0,67,0.00,,,0.02,Wunderground v.1.15,2013-04-15 09:30:00,
2013-04-15 05:40:00,50.4,40.2,29.75,SSW,195,1.0,1.0,68,0.00,,,0.02,Wunderground v.1.15,2013-04-15 09:40:00,
2013-04-15 05:50:00,50.8,40.6,29.74,SE,134,2.0,2.0,68,0.00,,,0.02,Wunderground v.1.15,2013-04-15 09:50:00,
2013-04-15 05:55:00,51.1,40.5,29.74,SE,124,3.0,3.0,67,0.00,,,0.02,Wunderground v.1.15,2013-04-15 09:55:00,
2013-04-15 06:00:00,51.3,40.7,29.72,SSE,155,2.0,5.0,67,0.00,,,0.02,Wunderground v.1.15,2013-04-15 10:00:00,
2013-04-15 06:05:00,51.6,41.0,29.72,SSE,165,3.0,5.0,67,0.00,,,0.02,Wunderground v.1.15,2013-04-15 10:05:00,
2013-04-15 06:15:00,51.7,41.1,29.72,SSE,157,2.0,6.0,67,0.00,,,0.02,Wunderground v.1.15,2013-04-15 10:15:00,
2013-04-15 06:25:00,52.3,41.3,29.72,SSW,210,3.0,3.0,66,0.00,,,0.02,Wunderground v.1.15,2013-04-15 10:25:00,
2013-04-15 06:30:00,52.6,41.6,29.71,SSE,151,3.0,3.0,66,0.00,,,0.02,Wunderground v.1.15,2013-04-15 10:30:00,
2013-04-15 06:35:00,52.8,41.7,29.71,SSW,200,3.0,3.0,66,0.00,,,0.02,Wunderground v.1.15,2013-04-15 10:35:00,
2013-04-15 06:45:00,52.9,41.8,29.72,SSW,209,2.0,2.0,66,0.00,,,0.02,Wunderground v.1.15,2013-04-15 10:45:00,
2013-04-15 06:50:00,53.1,42.0,29.72,SW,216,3.0,6.0,66,0.00,,,0.02,Wunderground v.1.15,2013-04-15 10:50:00,
2013-04-15 06:55:00,53.2,42.5,29.72,SSE,162,4.0,6.0,67,0.00,,,0.02,Wunderground v.1.15,2013-04-15 10:55:00,
2013-04-15 07:05:00,53.2,42.5,29.74,SSW,202,4.0,5.0,67,0.00,,,0.02,Wunderground v.1.15,2013-04-15 11:05:00,
2013-04-15 07:15:00,53.2,42.5,29.74,SW,223,4.0,6.0,67,0.00,,,0.02,Wunderground v.1.15,2013-04-15 11:15:00,
2013-04-15 07:20:00,53.3,42.6,29.74,SSW,209,3.0,4.0,67,0.00,,,0.02,Wunderground v.1.15,2013-04-15 11:20:00,
2013-04-15 07:25:00,53.3,42.6,29.74,SSW,202,3.0,5.0,67,0.00,,,0.02,Wunderground v.1.15,2013-04-15 11:25:00,
2013-04-15 07:30:00,53.5,42.8,29.75,South,176,3.0,3.0,67,0.00,,,0.03,Wunderground v.1.15,2013-04-15 11:30:00,
2013-04-15 07:40:00,53.6,42.9,29.75,South,189,4.0,6.0,67,0.00,,,0.03,Wunderground v.1.15,2013-04-15 11:40:00,
2013-04-15 07:45:00,53.6,42.9,29.75,SSW,199,4.0,6.0,67,0.00,,,0.03,Wunderground v.1.15,2013-04-15 11:45:00,
2013-04-15 07:50:00,53.8,43.1,29.75,SSW,203,4.0,4.0,67,0.00,,,0.03,Wunderground v.1.15,2013-04-15 11:50:00,
2013-04-15 08:00:00,53.8,43.1,29.75,SSW,205,3.0,5.0,67,0.00,,,0.03,Wunderground v.1.15,2013-04-15 12:00:00,
2013-04-15 08:05:00,53.9,43.2,29.75,SSW,206,4.0,5.0,67,0.00,,,0.03,Wunderground v.1.15,2013-04-15 12:05:00,
2013-04-15 08:15:00,54.2,43.5,29.76,SSW,208,4.0,6.0,67,0.00,,,0.03,Wunderground v.1.15,2013-04-15 12:15:00,
2013-04-15 08:20:00,54.4,44.1,29.76,SSE,162,5.0,5.0,68,0.00,,,0.03,Wunderground v.1.15,2013-04-15 12:20:00,
2013-04-15 08:25:00,54.5,44.2,29.76,SSW,200,5.0,6.0,68,0.00,,,0.03,Wunderground v.1.15,2013-04-15 12:25:00,
2013-04-15 08:35:00,54.7,44.3,29.75,SSW,200,4.0,7.0,68,0.00,,,0.03,Wunderground v.1.15,2013-04-15 12:35:00,
2013-04-15 08:40:00,54.8,44.4,29.75,SSW,196,4.0,6.0,68,0.00,,,0.03,Wunderground v.1.15,2013-04-15 12:40:00,
2013-04-15 08:45:00,55.0,44.2,29.75,SSW,208,5.0,6.0,67,0.00,,,0.03,Wunderground v.1.15,2013-04-15 12:45:00,
2013-04-15 08:55:00,56.0,45.2,29.75,SSW,209,5.0,6.0,67,0.00,,,0.03,Wunderground v.1.15,2013-04-15 12:55:00,
2013-04-15 09:00:00,56.5,45.3,29.75,SW,217,6.0,6.0,66,0.00,,,0.03,Wunderground v.1.15,2013-04-15 13:00:00,
2013-04-15 09:05:00,56.9,45.3,29.75,SW,222,7.0,10.0,65,0.00,,,0.03,Wunderground v.1.15,2013-04-15 13:05:00,
2013-04-15 09:15:00,57.2,45.5,29.75,SW,223,7.0,7.0,65,0.00,,,0.03,Wunderground v.1.15,2013-04-15 13:15:00,
2013-04-15 09:25:00,57.8,46.1,29.75,SSW,196,6.0,6.0,65,0.00,,,0.03,Wunderground v.1.15,2013-04-15 13:25:00,
2013-04-15 09:30:00,58.4,46.3,29.74,SSW,202,6.0,9.0,64,0.00,,,0.03,Wunderground v.1.15,2013-04-15 13:30:00,
2013-04-15 09:35:00,58.7,46.1,29.74,SSW,205,8.0,9.0,63,0.00,,,0.03,Wunderground v.1.15,2013-04-15 13:35:00,
2013-04-15 09:45:00,58.6,46.0,29.75,SW,215,9.0,10.0,63,0.00,,,0.03,Wunderground v.1.15,2013-04-15 13:45:00,
2013-04-15 09:50:00,58.4,45.8,29.75,SSW,213,9.0,13.0,63,0.00,,,0.03,Wunderground v.1.15,2013-04-15 13:50:00,
2013-04-15 09:55:00,58.4,46.3,29.75,SSW,209,9.0,13.0,64,0.00,,,0.03,Wunderground v.1.15,2013-04-15 13:55:00,
2013-04-15 10:05:00,58.4,46.3,29.75,SSW,192,9.0,16.0,64,0.00,,,0.03,Wunderground v.1.15,2013-04-15 14:05:00,
2013-04-15 10:15:00,58.4,46.7,29.75,SW,217,8.0,12.0,65,0.00,,,0.03,Wunderground v.1.15,2013-04-15 14:15:00,
2013-04-15 10:20:00,58.6,46.5,29.75,SW,222,8.0,8.0,64,0.00,,,0.03,Wunderground v.1.15,2013-04-15 14:20:00,
2013-04-15 10:30:00,58.9,46.7,29.75,SSW,212,8.0,8.0,64,0.00,,,0.04,Wunderground v.1.15,2013-04-15 14:30:00,
2013-04-15 10:35:00,59.2,47.0,29.75,SSW,212,8.0,8.0,64,0.00,,,0.04,Wunderground v.1.15,2013-04-15 14:35:00,
2013-04-15 10:40:00,59.5,47.3,29.75,WSW,239,8.0,12.0,64,0.00,,,0.04,Wunderground v.1.15,2013-04-15 14:40:00,
2013-04-15 10:45:00,59.6,47.4,29.75,South,188,8.0,12.0,64,0.00,,,0.04,Wunderground v.1.15,2013-04-15 14:45:00,
2013-04-15 10:55:00,59.6,47.4,29.75,SW,227,9.0,17.0,64,0.00,,,0.04,Wunderground v.1.15,2013-04-15 14:55:00,
2013-04-15 11:05:00,59.9,47.7,29.74,SSW,199,8.0,9.0,64,0.00,,,0.04,Wunderground v.1.15,2013-04-15 15:05:00,
2013-04-15 11:15:00,60.4,47.7,29.73,SW,215,7.0,10.0,63,0.00,,,0.04,Wunderground v.1.15,2013-04-15 15:15:00,
2013-04-15 11:20:00,60.7,48.0,29.73,WSW,244,8.0,11.0,63,0.00,,,0.04,Wunderground v.1.15,2013-04-15 15:20:00,
2013-04-15 11:25:00,60.9,48.2,29.73,SSW,209,9.0,11.0,63,0.00,,,0.04,Wunderground v.1.15,2013-04-15 15:25:00,
2013-04-15 11:40:00,61.0,48.3,29.75,SSW,200,9.0,9.0,63,0.00,,,0.04,Wunderground v.1.15,2013-04-15 15:40:00,
2013-04-15 11:50:00,61.3,48.6,29.76,SW,224,8.0,8.0,63,0.00,,,0.04,Wunderground v.1.15,2013-04-15 15:50:00,
2013-04-15 11:55:00,61.5,48.8,29.76,SSW,206,8.0,11.0,63,0.00,,,0.04,Wunderground v.1.15,2013-04-15 15:55:00,
2013-04-15 12:05:00,61.5,48.8,29.76,SSW,205,9.0,9.0,63,0.00,,,0.04,Wunderground v.1.15,2013-04-15 16:05:00,
2013-04-15 12:15:00,61.5,49.2,29.76,SSW,210,8.0,10.0,64,0.00,,,0.04,Wunderground v.1.15,2013-04-15 16:15:00,
2013-04-15 12:25:00,62.0,49.7,29.76,SW,219,7.0,11.0,64,0.00,,,0.04,Wunderground v.1.15,2013-04-15 16:25:00,
2013-04-15 12:30:00,62.0,49.7,29.76,SW,232,8.0,8.0,64,0.00,,,0.04,Wunderground v.1.15,2013-04-15 16:30:00,
2013-04-15 12:40:00,62.0,49.7,29.76,WSW,258,9.0,9.0,64,0.00,,,0.04,Wunderground v.1.15,2013-04-15 16:40:00,
2013-04-15 12:45:00,62.4,50.1,29.76,SSW,212,8.0,9.0,64,0.00,,,0.04,Wunderground v.1.15,2013-04-15 16:45:00,
2013-04-15 12:55:00,62.6,49.8,29.76,WSW,253,7.0,7.0,63,0.00,,,0.04,Wunderground v.1.15,2013-04-15 16:55:00,
2013-04-15 13:00:00,62.6,49.8,29.76,SSE,165,6.0,6.0,63,0.00,,,0.05,Wunderground v.1.15,2013-04-15 17:00:00,
2013-04-15 13:05:00,62.7,49.9,29.76,SSW,208,7.0,8.0,63,0.00,,,0.05,Wunderground v.1.15,2013-04-15 17:05:00,
2013-04-15 13:15:00,62.6,49.8,29.76,SSW,203,9.0,12.0,63,0.00,,,0.05,Wunderground v.1.15,2013-04-15 17:15:00,
2013-04-15 13:25:00,62.9,50.1,29.76,SSW,212,9.0,10.0,63,0.00,,,0.05,Wunderground v.1.15,2013-04-15 17:25:00,
2013-04-15 13:30:00,63.1,50.3,29.75,SW,220,8.0,10.0,63,0.00,,,0.05,Wunderground v.1.15,2013-04-15 17:30:00,
2013-04-15 13:35:00,63.4,50.6,29.75,SSW,210,7.0,10.0,63,0.00,,,0.05,Wunderground v.1.15,2013-04-15 17:35:00,
2013-04-15 13:45:00,63.4,50.6,29.75,South,176,8.0,11.0,63,0.00,,,0.05,Wunderground v.1.15,2013-04-15 17:45:00,
2013-04-15 13:50:00,63.9,50.6,29.75,South,184,8.0,8.0,62,0.00,,,0.05,Wunderground v.1.15,2013-04-15 17:50:00,
2013-04-15 13:55:00,64.2,50.9,29.75,SW,227,9.0,9.0,62,0.00,,,0.05,Wunderground v.1.15,2013-04-15 17:55:00,
2013-04-15 14:00:00,64.5,50.7,29.75,SSW,196,9.0,11.0,61,0.00,,,0.05,Wunderground v.1.15,2013-04-15 18:00:00,
2013-04-15 14:05:00,64.7,50.9,29.75,SW,222,9.0,11.0,61,0.00,,,0.05,Wunderground v.1.15,2013-04-15 18:05:00,
2013-04-15 14:15:00,64.5,51.2,29.75,SW,219,11.0,11.0,62,0.00,,,0.05,Wunderground v.1.15,2013-04-15 18:15:00,
2013-04-15 14:20:00,64.5,50.7,29.75,SSW,200,12.0,13.0,61,0.00,,,0.05,Wunderground v.1.15,2013-04-15 18:20:00,
2013-04-15 14:25:00,64.3,51.0,29.75,SSW,198,12.0,13.0,62,0.00,,,0.05,Wunderground v.1.15,2013-04-15 18:25:00,
2013-04-15 14:30:00,64.3,51.0,29.75,SSW,192,12.0,12.0,62,0.00,,,0.05,Wunderground v.1.15,2013-04-15 18:30:00,
2013-04-15 14:35:00,64.0,50.7,29.75,SSW,212,10.0,12.0,62,0.00,,,0.05,Wunderground v.1.15,2013-04-15 18:35:00,
2013-04-15 14:40:00,63.7,50.9,29.75,South,178,10.0,10.0,63,0.00,,,0.05,Wunderground v.1.15,2013-04-15 18:40:00,
2013-04-15 14:45:00,63.5,50.7,29.76,SW,217,8.0,10.0,63,0.00,,,0.05,Wunderground v.1.15,2013-04-15 18:45:00,
2013-04-15 14:50:00,63.4,51.0,29.76,SW,215,8.0,8.0,64,0.00,,,0.05,Wunderground v.1.15,2013-04-15 18:50:00,
2013-04-15 14:55:00,63.1,50.7,29.76,SSW,212,9.0,9.0,64,0.00,,,0.05,Wunderground v.1.15,2013-04-15 18:55:00,
2013-04-15 15:00:00,62.9,51.0,29.76,SSW,202,8.0,8.0,65,0.00,,,0.05,Wunderground v.1.15,2013-04-15 19:00:00,
2013-04-15 15:05:00,62.9,51.0,29.76,SSW,206,8.0,9.0,65,0.00,,,0.05,Wunderground v.1.15,2013-04-15 19:05:00,
2013-04-15 15:15:00,62.9,51.0,29.75,SW,215,7.0,7.0,65,0.00,,,0.05,Wunderground v.1.15,2013-04-15 19:15:00,
2013-04-15 15:20:00,62.9,51.0,29.75,West,278,7.0,7.0,65,0.00,,,0.05,Wunderground v.1.15,2013-04-15 19:20:00,
2013-04-15 15:25:00,63.1,51.1,29.75,SW,223,7.0,7.0,65,0.00,,,0.05,Wunderground v.1.15,2013-04-15 19:25:00,
2013-04-15 15:35:00,63.1,51.1,29.76,SW,224,8.0,8.0,65,0.00,,,0.05,Wunderground v.1.15,2013-04-15 19:35:00,
2013-04-15 15:45:00,63.1,51.1,29.75,SW,226,7.0,8.0,65,0.00,,,0.05,Wunderground v.1.15,2013-04-15 19:45:00,
2013-04-15 15:55:00,63.2,51.2,29.75,SW,230,6.0,7.0,65,0.00,,,0.05,Wunderground v.1.15,2013-04-15 19:55:00,
2013-04-15 16:05:00,63.2,51.2,29.75,SW,215,4.0,7.0,65,0.00,,,0.06,Wunderground v.1.15,2013-04-15 20:05:00,
2013-04-15 16:10:00,63.1,51.6,29.75,SSW,210,4.0,7.0,66,0.00,,,0.06,Wunderground v.1.15,2013-04-15 20:10:00,
2013-04-15 16:15:00,63.1,51.6,29.74,SW,230,5.0,7.0,66,0.00,,,0.06,Wunderground v.1.15,2013-04-15 20:15:00,
2013-04-15 16:25:00,63.2,51.6,29.74,SW,217,4.0,4.0,66,0.00,,,0.06,Wunderground v.1.15,2013-04-15 20:25:00,
2013-04-15 16:30:00,63.2,51.6,29.75,SSW,213,4.0,4.0,66,0.00,,,0.06,Wunderground v.1.15,2013-04-15 20:30:00,
2013-04-15 16:35:00,63.2,51.6,29.75,SW,229,4.0,5.0,66,0.00,,,0.06,Wunderground v.1.15,2013-04-15 20:35:00,
2013-04-15 16:45:00,63.2,51.6,29.75,SW,233,5.0,6.0,66,0.00,,,0.06,Wunderground v.1.15,2013-04-15 20:45:00,
2013-04-15 16:50:00,63.2,52.1,29.75,SW,219,3.0,3.0,67,0.00,,,0.06,Wunderground v.1.15,2013-04-15 20:50:00,
2013-04-15 16:55:00,63.1,52.0,29.75,West,260,2.0,3.0,67,0.00,,,0.06,Wunderground v.1.15,2013-04-15 20:55:00,
2013-04-15 17:00:00,62.9,52.2,29.75,WSW,258,2.0,4.0,68,0.00,,,0.06,Wunderground v.1.15,2013-04-15 21:00:00,
2013-04-15 17:05:00,62.7,52.4,29.75,SW,236,2.0,4.0,69,0.00,,,0.06,Wunderground v.1.15,2013-04-15 21:05:00,
2013-04-15 17:15:00,62.0,52.1,29.77,NW,316,4.0,10.0,70,0.00,,,0.06,Wunderground v.1.15,2013-04-15 21:15:00,
2013-04-15 17:20:00,61.0,52.3,29.77,West,274,6.0,7.0,73,0.00,,,0.06,Wunderground v.1.15,2013-04-15 21:20:00,
2013-04-15 17:25:00,59.9,52.7,29.77,WSW,250,7.0,8.0,77,0.00,,,0.06,Wunderground v.1.15,2013-04-15 21:25:00,
2013-04-15 17:30:00,58.9,52.7,29.78,West,265,8.0,8.0,80,0.00,,,0.06,Wunderground v.1.15,2013-04-15 21:30:00,
2013-04-15 17:35:00,58.1,53.0,29.78,WSW,256,7.0,8.0,83,0.00,,,0.06,Wunderground v.1.15,2013-04-15 21:35:00,
2013-04-15 17:40:00,57.5,53.0,29.78,West,268,5.0,5.0,85,0.00,,,0.06,Wunderground v.1.15,2013-04-15 21:40:00,
2013-04-15 17:50:00,56.7,52.9,29.78,SW,236,6.0,6.0,87,0.00,,,0.06,Wunderground v.1.15,2013-04-15 21:50:00,
2013-04-15 17:55:00,56.6,53.1,29.78,WNW,282,5.0,6.0,88,0.00,,,0.06,Wunderground v.1.15,2013-04-15 21:55:00,
2013-04-15 18:00:00,56.6,53.1,29.78,West,268,2.0,2.0,88,0.00,,,0.06,Wunderground v.1.15,2013-04-15 22:00:00,
2013-04-15 18:05:00,56.5,53.3,29.78,West,263,2.0,3.0,89,0.00,,,0.06,Wunderground v.1.15,2013-04-15 22:05:00,
2013-04-15 18:15:00,56.3,53.1,29.78,WSW,254,4.0,6.0,89,0.00,,,0.06,Wunderground v.1.15,2013-04-15 22:15:00,
2013-04-15 18:20:00,56.3,53.1,29.78,WSW,256,4.0,4.0,89,0.00,,,0.06,Wunderground v.1.15,2013-04-15 22:20:00,
2013-04-15 18:25:00,56.2,53.0,29.78,West,268,4.0,6.0,89,0.00,,,0.06,Wunderground v.1.15,2013-04-15 22:25:00,
2013-04-15 18:30:00,56.2,53.3,29.79,West,280,4.0,4.0,90,0.00,,,0.06,Wunderground v.1.15,2013-04-15 22:30:00,
2013-04-15 18:40:00,55.9,53.0,29.79,WSW,258,3.0,5.0,90,0.00,,,0.06,Wunderground v.1.15,2013-04-15 22:40:00,
2013-04-15 18:45:00,55.7,52.8,29.79,SW,230,3.0,5.0,90,0.00,,,0.06,Wunderground v.1.15,2013-04-15 22:45:00,
2013-04-15 18:50:00,55.7,52.8,29.79,WSW,244,2.0,6.0,90,0.00,,,0.06,Wunderground v.1.15,2013-04-15 22:50:00,
2013-04-15 19:00:00,55.6,53.0,29.80,SW,229,4.0,4.0,91,0.00,,,0.06,Wunderground v.1.15,2013-04-15 23:00:00,
2013-04-15 19:05:00,55.6,53.0,29.80,West,268,3.0,4.0,91,0.00,,,0.06,Wunderground v.1.15,2013-04-15 23:05:00,
2013-04-15 19:15:00,55.6,53.0,29.80,West,271,2.0,2.0,91,0.00,,,0.06,Wunderground v.1.15,2013-04-15 23:15:00,
2013-04-15 19:20:00,55.6,53.0,29.80,West,278,1.0,3.0,91,0.00,,,0.06,Wunderground v.1.15,2013-04-15 23:20:00,
2013-04-15 19:25:00,55.4,52.8,29.80,WNW,302,3.0,3.0,91,0.00,,,0.06,Wunderground v.1.15,2013-04-15 23:25:00,
2013-04-15 19:35:00,55.4,52.8,29.80,West,274,2.0,3.0,91,0.00,,,0.06,Wunderground v.1.15,2013-04-15 23:35:00,
2013-04-15 19:40:00,55.3,52.7,29.80,WNW,291,1.0,1.0,91,0.00,,,0.07,Wunderground v.1.15,2013-04-15 23:40:00,
2013-04-15 19:45:00,55.3,53.0,29.79,WNW,287,0.0,1.0,92,0.00,,,0.07,Wunderground v.1.15,2013-04-15 23:45:00,
2013-04-15 19:55:00,55.3,53.0,29.79,West,268,1.0,1.0,92,0.00,,,0.07,Wunderground v.1.15,2013-04-15 23:55:00,
2013-04-15 20:00:00,55.3,53.0,29.80,West,270,0.0,0.0,92,0.00,,,0.07,Wunderground v.1.15,2013-04-16 00:00:00,
2013-04-15 20:05:00,55.3,53.0,29.80,WNW,288,1.0,1.0,92,0.00,,,0.07,Wunderground v.1.15,2013-04-16 00:05:00,
2013-04-15 20:15:00,55.0,52.7,29.80,West,268,3.0,3.0,92,0.00,,,0.07,Wunderground v.1.15,2013-04-16 00:15:00,
2013-04-15 20:20:00,54.7,52.4,29.80,WNW,302,4.0,4.0,92,0.00,,,0.07,Wunderground v.1.15,2013-04-16 00:20:00,
2013-04-15 20:30:00,53.1,50.5,29.81,NNW,342,4.0,4.0,91,0.00,,,0.07,Wunderground v.1.15,2013-04-16 00:30:00,
2013-04-15 20:35:00,52.2,49.4,29.81,North,350,3.0,4.0,90,0.00,,,0.07,Wunderground v.1.15,2013-04-16 00:35:00,
2013-04-15 20:40:00,51.3,48.5,29.81,NW,323,4.0,5.0,90,0.00,,,0.07,Wunderground v.1.15,2013-04-16 00:40:00,
2013-04-15 20:45:00,51.1,48.3,29.83,NW,313,3.0,10.0,90,0.00,,,0.07,Wunderground v.1.15,2013-04-16 00:45:00,
2013-04-15 20:55:00,50.5,47.7,29.83,NW,316,3.0,3.0,90,0.00,,,0.07,Wunderground v.1.15,2013-04-16 00:55:00,
2013-04-15 21:00:00,50.4,47.6,29.83,NNW,343,2.0,4.0,90,0.00,,,0.07,Wunderground v.1.15,2013-04-16 01:00:00,
2013-04-15 21:05:00,50.1,47.3,29.83,North,7,2.0,4.0,90,0.00,,,0.07,Wunderground v.1.15,2013-04-16 01:05:00,
2013-04-15 21:15:00,49.2,46.1,29.84,NW,325,3.0,3.0,89,0.00,,,0.07,Wunderground v.1.15,2013-04-16 01:15:00,
2013-04-15 21:20:00,48.9,45.5,29.84,North,353,4.0,4.0,88,0.00,,,0.07,Wunderground v.1.15,2013-04-16 01:20:00,
2013-04-15 21:25:00,48.8,45.1,29.84,NNW,340,3.0,4.0,87,0.00,,,0.07,Wunderground v.1.15,2013-04-16 01:25:00,
2013-04-15 21:35:00,48.5,44.8,29.83,North,349,1.0,2.0,87,0.00,,,0.07,Wunderground v.1.15,2013-04-16 01:35:00,
2013-04-15 21:40:00,48.5,45.1,29.83,NNW,328,1.0,1.0,88,0.00,,,0.07,Wunderground v.1.15,2013-04-16 01:40:00,
2013-04-15 21:45:00,48.3,44.9,29.84,NW,326,1.0,2.0,88,0.00,,,0.07,Wunderground v.1.15,2013-04-16 01:45:00,
2013-04-15 21:55:00,48.3,44.9,29.84,NW,326,0.0,1.0,88,0.00,,,0.07,Wunderground v.1.15,2013-04-16 01:55:00,
2013-04-15 22:00:00,48.3,44.9,29.84,NW,326,0.0,0.0,88,0.00,,,0.07,Wunderground v.1.15,2013-04-16 02:00:00,
2013-04-15 22:05:00,48.2,45.1,29.84,NNW,328,0.0,0.0,89,0.00,,,0.07,Wunderground v.1.15,2013-04-16 02:05:00,
2013-04-15 22:15:00,48.0,44.9,29.84,NW,326,0.0,0.0,89,0.00,,,0.07,Wunderground v.1.15,2013-04-16 02:15:00,
2013-04-15 22:25:00,48.0,44.9,29.84,NNW,328,0.0,0.0,89,0.00,,,0.07,Wunderground v.1.15,2013-04-16 02:25:00,
2013-04-15 22:30:00,47.9,45.1,29.84,NNW,328,0.0,0.0,90,0.00,,,0.07,Wunderground v.1.15,2013-04-16 02:30:00,
2013-04-15 22:35:00,47.7,44.9,29.84,NNW,328,0.0,0.0,90,0.00,,,0.07,Wunderground v.1.15,2013-04-16 02:35:00,
2013-04-15 22:40:00,47.7,44.9,29.84,NW,326,0.0,0.0,90,0.00,,,0.07,Wunderground v.1.15,2013-04-16 02:40:00,
2013-04-15 22:50:00,47.6,44.8,29.85,NW,319,0.0,0.0,90,0.00,,,0.07,Wunderground v.1.15,2013-04-16 02:50:00,
2013-04-15 22:55:00,47.4,-99.9,29.85,NW,319,0.0,0.0,255,0.00,,,0.07,Wunderground v.1.15,2013-04-16 02:55:00,
2013-04-15 23:00:00,47.3,44.5,29.85,NW,319,0.0,0.0,90,0.00,,,0.07,Wunderground v.1.15,2013-04-16 03:00:00,
2013-04-15 23:05:00,47.3,44.5,29.85,West,263,1.0,1.0,90,0.00,,,0.07,Wunderground v.1.15,2013-04-16 03:05:00,
2013-04-15 23:15:00,47.1,44.6,29.84,West,263,0.0,1.0,91,0.00,,,0.07,Wunderground v.1.15,2013-04-16 03:15:00,
2013-04-15 23:20:00,47.0,44.5,29.84,West,263,0.0,0.0,91,0.00,,,0.08,Wunderground v.1.15,2013-04-16 03:20:00,
2013-04-15 23:30:00,47.0,44.5,29.87,West,270,1.0,1.0,91,0.00,,,0.08,Wunderground v.1.15,2013-04-16 03:30:00,
2013-04-15 23:35:00,47.0,44.5,29.87,West,270,0.0,1.0,91,0.00,,,0.08,Wunderground v.1.15,2013-04-16 03:35:00,
2013-04-15 23:40:00,46.7,44.2,29.87,NW,313,1.0,1.0,91,0.00,,,0.08,Wunderground v.1.15,2013-04-16 03:40:00,
2013-04-15 23:50:00,46.5,44.0,29.87,West,275,1.0,1.0,91,0.00,,,0.08,Wunderground v.1.15,2013-04-16 03:50:00,
2013-04-15 23:55:00,46.4,43.9,29.87,West,275,1.0,1.0,91,0.00,,,0.08,Wunderground v.1.15,2013-04-16 03:55:00,